Bookmark and Share
Track history (hours):
 

Al Kharsaah

Last reported at 2014-Apr-09 05:34 UTC. Time now 2014-Apr-17 06:44 UTC.
Position N 26°23' E 056°09'.
Warning: this ship's position is 8 days out of date.

Length 315 m; draft 12.1 m.

Type: Ship (hazmat cat D). MMSI: 309333000.

NotesDate/timePositionNaut miles runAvg speedWind from/ knotsBaromVisibWave heightAir tempDewpointWater temp
2014-Apr-09 05:34N 26°23' E 056°09'2118.5
2014-Apr-09 04:25N 26°16' E 055°47'1618.7
2014-Apr-09 03:33N 26°10' E 055°30'1817.7
2014-Apr-09 02:33N 26°07' E 055°11'1818.5
2014-Apr-09 01:33N 26°09' E 054°50'1918.6
2014-Apr-09 00:34N 26°11' E 054°30'1918.7
2014-Apr-08 23:33N 26°10' E 054°09'1918.9
2014-Apr-08 22:34N 26°08' E 053°48'1918.9
2014-Apr-08 21:34N 26°07' E 053°27'2018.6
2014-Apr-08 20:30N 26°06' E 053°05'2018.7
2014-Apr-08 19:24N 26°04' E 052°42'51 1.7
2014-Apr-07 13:26N 25°57' E 051°47'2 0.9
2014-Apr-07 11:26N 25°57' E 051°45'4 3.9
2014-Apr-07 10:30N 25°58' E 051°48'1313.5
2014-Apr-07 09:33N 26°03' E 052°02'1414.2
2014-Apr-07 08:33N 26°05' E 052°17'1614.1
2014-Apr-07 07:26N 26°08' E 052°35'1214.1
2014-Apr-07 06:34N 26°08' E 052°48'1614.5
2014-Apr-07 05:27N 26°09' E 053°06'1314.6
2014-Apr-07 04:33N 26°09' E 053°21'1615.0
2014-Apr-07 03:31N 26°12' E 053°38'1415.0
2014-Apr-07 02:33N 26°15' E 053°54'1515.0
2014-Apr-07 01:33N 26°19' E 054°10'1514.7
2014-Apr-07 00:34N 26°22' E 054°26'1414.5
2014-Apr-06 23:33N 26°21' E 054°42'1414.4
2014-Apr-06 22:33N 26°19' E 054°58'1514.6
2014-Apr-06 21:33N 26°19' E 055°14'1717.0
2014-Apr-06 20:33N 26°23' E 055°33'1717.3
2014-Apr-06 19:33N 26°30' E 055°50'1716.8
2014-Apr-06 18:33N 26°33' E 056°09'1716.8
2014-Apr-06 17:33N 26°38' E 056°27'  

Dump ship's entire track history

sailing weather and tide predictions

Al Kharsaah — C6VG3 — position and weather